createdAt,value
2022-08-19T00:00:03.519Z,91.83
2022-08-19T00:02:51.508Z,92.17
2022-08-19T00:05:39.753Z,93.08
2022-08-19T00:08:27.345Z,94.50
2022-08-19T00:11:18.601Z,94.78
2022-08-19T00:14:03.772Z,94.97
2022-08-19T00:16:53.162Z,95.03
2022-08-19T00:19:41.779Z,94.79
2022-08-19T00:22:29.527Z,94.61
2022-08-19T00:25:17.560Z,94.92
2022-08-19T00:28:05.847Z,94.51
2022-08-19T00:30:54.248Z,94.31
2022-08-19T00:33:41.800Z,94.10
2022-08-19T00:36:30.103Z,93.95
2022-08-19T00:39:19.425Z,92.97
2022-08-19T00:42:07.528Z,92.01
2022-08-19T00:44:55.009Z,91.48
2022-08-19T00:47:43.178Z,91.07
2022-08-19T00:50:31.097Z,90.83
2022-08-19T00:53:21.034Z,90.74
2022-08-19T00:56:09.896Z,90.65
2022-08-19T00:58:59.616Z,90.57
2022-08-19T01:01:48.525Z,90.39
2022-08-19T01:04:36.329Z,89.36
2022-08-19T01:07:23.647Z,88.60
2022-08-19T01:10:14.409Z,88.17
2022-08-19T01:13:02.457Z,87.47
2022-08-19T01:15:53.433Z,86.97
2022-08-19T01:18:43.545Z,86.48
2022-08-19T01:21:46.015Z,85.54
2022-08-19T01:24:33.640Z,85.54
2022-08-19T01:27:22.343Z,85.75
2022-08-19T01:30:11.192Z,86.04
2022-08-19T01:33:00.648Z,85.84
2022-08-19T01:35:50.664Z,85.34
2022-08-19T01:38:44.423Z,85.01
2022-08-19T01:41:28.832Z,84.75
2022-08-19T01:44:19.344Z,84.76
2022-08-19T01:47:07.744Z,84.28
2022-08-19T01:49:55.217Z,84.17
2022-08-19T01:52:45.186Z,83.54
2022-08-19T01:55:32.841Z,83.11
2022-08-19T01:58:26.208Z,83.00
2022-08-19T02:01:13.752Z,82.58
2022-08-19T02:04:01.927Z,82.28
2022-08-19T02:06:49.336Z,81.42
2022-08-19T02:09:37.386Z,80.54
2022-08-19T02:12:24.840Z,80.35
2022-08-19T02:15:12.635Z,79.62
2022-08-19T02:18:00.368Z,79.09
2022-08-19T02:20:50.953Z,78.71
2022-08-19T02:23:38.324Z,78.10
2022-08-19T02:26:27.703Z,78.04
2022-08-19T02:29:14.955Z,77.72
2022-08-19T02:32:02.105Z,77.63
2022-08-19T02:34:50.305Z,77.51
2022-08-19T02:37:55.904Z,77.93
2022-08-19T02:40:45.056Z,78.19
2022-08-19T02:43:35.952Z,78.48
2022-08-19T02:46:28.030Z,78.36
2022-08-19T02:49:17.033Z,78.45
2022-08-19T02:52:05.479Z,78.46
2022-08-19T02:54:53.008Z,78.32
2022-08-19T02:57:40.551Z,77.94
2022-08-19T03:00:28.672Z,77.54
2022-08-19T03:03:16.536Z,77.19
2022-08-19T03:06:13.895Z,76.98
2022-08-19T03:09:02.328Z,76.37
2022-08-19T03:11:52.630Z,76.29
2022-08-19T03:14:39.760Z,76.19
2022-08-19T03:17:27.368Z,76.42
2022-08-19T03:20:14.744Z,76.32
2022-08-19T03:23:01.939Z,76.11
2022-08-19T03:25:58.169Z,75.57
2022-08-19T03:28:40.408Z,75.60
2022-08-19T03:31:43.770Z,75.64
2022-08-19T03:34:23.527Z,75.78
2022-08-19T03:37:14.456Z,75.90
2022-08-19T03:40:03.430Z,76.15
2022-08-19T03:42:51.088Z,76.59
2022-08-19T03:45:38.616Z,77.07
2022-08-19T03:48:26.682Z,77.77
2022-08-19T03:54:08.847Z,79.80
2022-08-19T03:56:57.585Z,80.23
2022-08-19T03:59:45.127Z,80.66
2022-08-19T04:02:32.689Z,80.76
2022-08-19T04:05:20.065Z,80.61
2022-08-19T04:08:13.367Z,80.61
2022-08-19T04:10:57.896Z,80.82
2022-08-19T04:13:45.887Z,81.09
2022-08-19T04:16:35.278Z,80.83
2022-08-19T04:19:24.081Z,80.53
2022-08-19T04:22:12.711Z,79.97
2022-08-19T04:25:00.225Z,79.38
2022-08-19T04:27:47.945Z,78.59
2022-08-19T04:30:40.311Z,77.96
2022-08-19T04:33:29.671Z,77.54
2022-08-19T04:36:22.559Z,76.88
2022-08-19T04:39:12.753Z,76.60
2022-08-19T04:42:17.344Z,76.83
2022-08-19T04:45:11.395Z,77.05
2022-08-19T04:48:26.508Z,77.08
2022-08-19T04:50:49.745Z,76.62
2022-08-19T04:53:38.799Z,76.23
2022-08-19T04:56:27.480Z,75.78
2022-08-19T04:59:15.816Z,75.02
2022-08-19T05:02:03.145Z,74.33
2022-08-19T05:04:50.824Z,73.96
2022-08-19T05:07:39.361Z,73.79
2022-08-19T05:10:27.119Z,73.64
2022-08-19T05:13:14.519Z,73.18
2022-08-19T05:16:01.927Z,72.83
2022-08-19T05:19:07.858Z,72.12
2022-08-19T05:22:13.863Z,72.12
2022-08-19T05:25:12.633Z,71.50
2022-08-19T05:27:50.448Z,71.23
2022-08-19T05:30:47.335Z,71.12
2022-08-19T05:33:27.400Z,71.05
2022-08-19T05:36:15.163Z,70.51
2022-08-19T05:39:03.264Z,69.49
2022-08-19T05:41:54.064Z,69.42
2022-08-19T05:44:45.272Z,69.56
2022-08-19T05:47:33.257Z,69.40
2022-08-19T05:50:20.895Z,69.01
2022-08-19T05:53:09.841Z,68.57
2022-08-19T05:55:56.912Z,68.67
2022-08-19T05:58:47.270Z,68.20
2022-08-19T06:01:34.600Z,67.76
2022-08-19T06:04:22.977Z,67.07
2022-08-19T06:07:12.289Z,66.49
2022-08-19T06:10:01.430Z,65.96
2022-08-19T06:12:49.291Z,65.16
2022-08-19T06:15:36.712Z,64.61
2022-08-19T06:18:24.418Z,64.65
2022-08-19T06:21:12.080Z,64.89
2022-08-19T06:23:59.842Z,64.27
2022-08-19T06:26:49.822Z,64.91
2022-08-19T06:29:37.448Z,64.77
2022-08-19T06:32:24.824Z,64.96
2022-08-19T06:35:12.401Z,65.52
2022-08-19T06:38:00.385Z,64.91
2022-08-19T06:40:47.796Z,64.59
2022-08-19T06:43:35.243Z,62.70
2022-08-19T06:46:24.807Z,62.77
2022-08-19T06:49:14.512Z,62.95
2022-08-19T06:52:02.385Z,62.55
2022-08-19T06:54:55.906Z,62.06
2022-08-19T06:57:38.552Z,61.81
2022-08-19T07:00:26.088Z,60.18
2022-08-19T07:03:14.052Z,60.05
2022-08-19T07:06:21.269Z,60.43
2022-08-19T07:09:00.288Z,60.02
2022-08-19T07:11:50.965Z,59.59
2022-08-19T07:14:39.842Z,59.83
2022-08-19T07:17:27.912Z,59.40
2022-08-19T07:20:15.539Z,59.14
2022-08-19T07:23:07.221Z,58.80
2022-08-19T07:25:53.692Z,58.25
2022-08-19T07:28:51.344Z,58.47
2022-08-19T07:31:31.172Z,57.23
2022-08-19T07:34:20.160Z,56.97
2022-08-19T07:37:08.873Z,57.54
2022-08-19T07:39:56.730Z,57.34
2022-08-19T07:42:45.232Z,56.57
2022-08-19T07:45:33.465Z,56.17
2022-08-19T07:48:23.011Z,53.10
2022-08-19T07:51:11.937Z,53.76
2022-08-19T07:54:01.365Z,53.33
2022-08-19T07:56:48.609Z,52.98
2022-08-19T07:59:38.232Z,52.64
2022-08-19T08:02:25.728Z,52.84
2022-08-19T08:05:33.966Z,52.35
2022-08-19T08:08:27.594Z,50.71
2022-08-19T08:11:15.770Z,51.73
2022-08-19T08:14:04.522Z,51.89
2022-08-19T08:16:53.400Z,51.18
2022-08-19T08:19:43.416Z,51.14
2022-08-19T08:22:48.899Z,51.20
2022-08-19T08:25:38.944Z,50.68
2022-08-19T08:28:29.805Z,49.41
2022-08-19T08:31:16.680Z,49.55
2022-08-19T08:34:04.192Z,48.29
2022-08-19T08:36:52.944Z,48.79
2022-08-19T08:39:40.415Z,48.79
2022-08-19T08:42:33.360Z,47.86
2022-08-19T08:45:20.858Z,47.94
2022-08-19T08:48:22.386Z,48.51
2022-08-19T08:51:02.200Z,48.31
2022-08-19T08:53:50.911Z,47.57
2022-08-19T08:56:44.160Z,46.60
2022-08-19T08:59:34.281Z,46.59
2022-08-19T09:02:21.554Z,46.12
2022-08-19T09:05:11.024Z,46.43
2022-08-19T09:08:03.728Z,45.60
2022-08-19T09:10:56.063Z,46.32
2022-08-19T09:14:06.004Z,46.47
2022-08-19T09:16:53.521Z,47.14
2022-08-19T09:19:58.497Z,45.75
2022-08-19T09:22:46.408Z,45.92
2022-08-19T09:25:35.603Z,45.15
2022-08-19T09:28:26.949Z,43.96
2022-08-19T09:31:20.528Z,43.41
2022-08-19T09:34:07.736Z,42.98
2022-08-19T09:36:58.665Z,43.74
2022-08-19T09:39:45.884Z,42.19
2022-08-19T09:42:35.280Z,42.53
2022-08-19T09:45:24.112Z,42.57
2022-08-19T09:48:11.687Z,41.38
2022-08-19T09:51:08.703Z,41.60
2022-08-19T09:54:00.952Z,41.65
2022-08-19T09:56:50.240Z,41.86
2022-08-19T09:59:37.560Z,41.88
2022-08-19T10:02:25.976Z,41.37
2022-08-19T10:05:32.471Z,41.64
2022-08-19T10:08:22.776Z,41.56
2022-08-19T10:11:28.575Z,41.98
2022-08-19T10:14:01.648Z,40.89
2022-08-19T10:16:50.391Z,41.12
2022-08-19T10:19:37.727Z,41.06
2022-08-19T10:22:26.202Z,41.09
2022-08-19T10:25:15.111Z,40.89
2022-08-19T10:28:02.967Z,40.13
2022-08-19T10:30:50.408Z,40.93
2022-08-19T10:33:53.350Z,40.79
2022-08-19T10:36:33.977Z,40.69
2022-08-19T10:39:22.844Z,39.24
2022-08-19T10:42:12.969Z,38.71
2022-08-19T10:45:01.153Z,39.83
2022-08-19T10:47:48.826Z,39.96
2022-08-19T10:50:53.948Z,39.89
2022-08-19T10:53:41.568Z,40.16
2022-08-19T10:56:47.711Z,39.41
2022-08-19T10:59:36.568Z,39.63
2022-08-19T11:02:25.032Z,40.50
2022-08-19T11:05:13.696Z,40.74
2022-08-19T11:08:01.615Z,39.71
2022-08-19T11:10:51.199Z,39.71
2022-08-19T11:13:42.055Z,38.69
2022-08-19T11:16:30.887Z,39.82
2022-08-19T11:19:20.304Z,40.06
2022-08-19T11:22:10.504Z,39.24
2022-08-19T11:24:59.879Z,38.12
2022-08-19T11:27:47.935Z,39.01
2022-08-19T11:30:35.544Z,38.68
2022-08-19T11:33:23.313Z,38.75
2022-08-19T11:36:11.159Z,38.72
2022-08-19T11:39:01.216Z,37.63
2022-08-19T11:41:48.849Z,37.74
2022-08-19T11:44:36.963Z,37.62
2022-08-19T11:47:25.231Z,38.09
2022-08-19T11:50:12.288Z,37.89
2022-08-19T11:52:59.936Z,36.42
2022-08-19T11:55:47.112Z,35.99
2022-08-19T11:58:35.824Z,36.69
2022-08-19T12:01:25.232Z,36.34
2022-08-19T12:04:12.864Z,35.56
2022-08-19T12:07:00.121Z,36.06
2022-08-19T12:09:48.664Z,35.44
2022-08-19T12:12:38.272Z,35.13
2022-08-19T12:15:25.863Z,36.37
2022-08-19T12:18:14.943Z,36.04
2022-08-19T12:21:02.506Z,35.78
2022-08-19T12:23:55.507Z,34.46
2022-08-19T12:26:53.346Z,34.15
2022-08-19T12:29:30.858Z,34.61
2022-08-19T12:32:18.544Z,34.33
2022-08-19T12:35:06.405Z,34.19
2022-08-19T12:37:57.343Z,32.80
2022-08-19T12:40:45.632Z,33.56
2022-08-19T12:43:33.095Z,33.88
2022-08-19T12:46:22.263Z,33.36
2022-08-19T12:49:16.791Z,33.46
2022-08-19T12:52:00.081Z,34.08
2022-08-19T12:54:48.015Z,34.01
2022-08-19T12:57:37.937Z,33.86
2022-08-19T13:00:25.306Z,33.62
2022-08-19T13:03:12.642Z,33.20
2022-08-19T13:05:59.895Z,32.07
2022-08-19T13:08:47.368Z,31.91
2022-08-19T13:11:34.920Z,31.29
2022-08-19T13:14:22.248Z,30.82
2022-08-19T13:17:09.892Z,29.42
2022-08-19T13:19:57.904Z,29.33
2022-08-19T13:22:46.183Z,29.05
2022-08-19T13:25:34.290Z,28.37
2022-08-19T13:28:22.233Z,28.11
2022-08-19T13:31:28.985Z,27.60
2022-08-19T13:34:17.536Z,27.46
2022-08-19T13:37:06.431Z,27.00
2022-08-19T13:39:54.157Z,26.53
2022-08-19T13:42:42.096Z,25.50
2022-08-19T13:45:33.361Z,25.34
2022-08-19T13:48:20.720Z,25.17
2022-08-19T13:51:10.049Z,25.13
2022-08-19T13:53:57.745Z,24.44
2022-08-19T13:56:46.671Z,24.32
2022-08-19T13:59:34.304Z,24.09
2022-08-19T14:02:21.888Z,24.04
2022-08-19T14:05:11.064Z,23.32
2022-08-19T14:07:59.464Z,22.50
2022-08-19T14:10:47.064Z,22.58
2022-08-19T14:13:35.128Z,22.69
2022-08-19T14:16:23.018Z,23.19
2022-08-19T14:19:10.320Z,23.17
2022-08-19T14:21:58.756Z,23.15
2022-08-19T14:24:47.914Z,22.90
2022-08-19T14:27:36.626Z,22.95
2022-08-19T14:30:32.728Z,23.06
2022-08-19T14:33:20.048Z,23.09
2022-08-19T14:36:08.144Z,22.23
2022-08-19T14:38:55.799Z,22.54
2022-08-19T14:41:43.871Z,22.73
2022-08-19T14:44:32.889Z,22.45
2022-08-19T14:47:20.744Z,22.83
2022-08-19T14:50:17.856Z,23.16
2022-08-19T14:53:11.981Z,22.89
2022-08-19T14:55:56.034Z,22.68
2022-08-19T14:58:44.955Z,22.94
2022-08-19T15:01:32.883Z,23.15
2022-08-19T15:04:20.114Z,24.12
2022-08-19T15:07:08.413Z,24.57
2022-08-19T15:09:56.039Z,24.42
2022-08-19T15:12:45.150Z,25.32
2022-08-19T15:15:33.176Z,25.43
2022-08-19T15:18:21.517Z,25.49
2022-08-19T15:21:09.080Z,24.85
2022-08-19T15:23:58.448Z,25.50
2022-08-19T15:26:45.624Z,25.52
2022-08-19T15:29:33.280Z,25.87
2022-08-19T15:32:20.937Z,25.72
2022-08-19T15:35:09.601Z,25.91
2022-08-19T15:37:57.726Z,26.31
2022-08-19T15:40:45.887Z,26.36
2022-08-19T15:43:33.074Z,26.45
2022-08-19T15:46:23.810Z,26.37
2022-08-19T15:49:12.576Z,26.45
2022-08-19T15:52:01.744Z,26.83
2022-08-19T15:54:48.449Z,26.90
2022-08-19T15:57:53.824Z,27.13
2022-08-19T16:00:59.513Z,27.26
2022-08-19T16:04:11.021Z,27.47
2022-08-19T16:06:58.939Z,27.74
2022-08-19T16:09:46.042Z,28.05
2022-08-19T16:12:33.904Z,28.52
2022-08-19T16:15:21.569Z,28.83
2022-08-19T16:18:09.320Z,29.39
2022-08-19T16:20:56.944Z,29.99
2022-08-19T16:23:47.133Z,30.33
2022-08-19T16:26:35.697Z,30.33
2022-08-19T16:29:34.892Z,30.81
2022-08-19T16:32:14.177Z,31.89
2022-08-19T16:35:06.647Z,32.86
2022-08-19T16:37:54.123Z,33.71
2022-08-19T16:40:45.014Z,34.73
2022-08-19T16:43:31.672Z,35.80
2022-08-19T16:46:19.632Z,36.68
2022-08-19T16:49:10.736Z,37.43
2022-08-19T16:51:57.680Z,37.88
2022-08-19T16:54:45.463Z,38.32
2022-08-19T16:57:33.417Z,38.67
2022-08-19T17:00:21.432Z,39.40
2022-08-19T17:03:14.624Z,40.14
2022-08-19T17:06:03.973Z,40.80
2022-08-19T17:08:53.305Z,41.17
2022-08-19T17:11:40.687Z,41.40
2022-08-19T17:14:28.137Z,41.66
2022-08-19T17:17:16.153Z,41.90
2022-08-19T17:20:06.056Z,42.64
2022-08-19T17:22:53.447Z,42.33
2022-08-19T17:25:40.890Z,42.26
2022-08-19T17:28:30.513Z,42.57
2022-08-19T17:31:19.187Z,42.83
2022-08-19T17:34:06.629Z,42.83
2022-08-19T17:36:57.234Z,42.79
2022-08-19T17:39:44.749Z,42.92
2022-08-19T17:42:32.611Z,43.39
2022-08-19T17:45:20.801Z,43.74
2022-08-19T17:48:08.857Z,44.48
2022-08-19T17:50:56.233Z,45.09
2022-08-19T17:53:45.656Z,45.94
2022-08-19T17:56:33.563Z,46.78
2022-08-19T17:59:20.968Z,48.13
2022-08-19T18:02:11.287Z,48.78
2022-08-19T18:04:59.433Z,49.36
2022-08-19T18:07:49.264Z,49.73
2022-08-19T18:10:38.161Z,50.64
2022-08-19T18:13:25.817Z,51.07
2022-08-19T18:16:13.601Z,50.87
2022-08-19T18:19:01.293Z,49.97
2022-08-19T18:21:49.152Z,49.15
2022-08-19T18:24:41.838Z,48.91
2022-08-19T18:27:29.427Z,48.90
2022-08-19T18:30:17.762Z,48.91
2022-08-19T18:33:09.520Z,49.61
2022-08-19T18:35:56.832Z,50.53
2022-08-19T18:39:06.810Z,51.34
2022-08-19T18:42:09.904Z,52.05
2022-08-19T18:45:15.560Z,52.69
2022-08-19T18:48:27.691Z,52.84
2022-08-19T18:51:11.264Z,53.05
2022-08-19T18:53:59.952Z,53.08
2022-08-19T18:56:49.082Z,53.33
2022-08-19T18:59:37.754Z,53.76
2022-08-19T19:02:28.297Z,54.24
2022-08-19T19:05:16.840Z,54.72
2022-08-19T19:08:04.776Z,55.02
2022-08-19T19:10:55.367Z,55.19
2022-08-19T19:13:48.530Z,55.44
2022-08-19T19:16:36.288Z,56.05
2022-08-19T19:19:24.747Z,57.41
2022-08-19T19:22:20.513Z,59.18
2022-08-19T19:25:12.160Z,60.46
2022-08-19T19:28:00.018Z,60.56
2022-08-19T19:30:47.248Z,59.96
2022-08-19T19:33:35.544Z,59.54
2022-08-19T19:36:25.466Z,59.98
2022-08-19T19:39:12.852Z,60.42
2022-08-19T19:42:03.197Z,60.99
2022-08-19T19:44:53.969Z,61.39
2022-08-19T19:47:44.216Z,62.02
2022-08-19T19:50:31.632Z,62.40
2022-08-19T19:53:19.490Z,62.48
2022-08-19T19:56:07.640Z,62.38
2022-08-19T19:58:55.659Z,62.28
2022-08-19T20:01:44.918Z,62.48
2022-08-19T20:04:33.073Z,62.63
2022-08-19T20:07:23.177Z,63.33
2022-08-19T20:10:10.729Z,64.30
2022-08-19T20:12:58.255Z,64.71
2022-08-19T20:15:45.993Z,64.85
2022-08-19T20:18:34.209Z,64.82
2022-08-19T20:21:22.641Z,64.91
2022-08-19T20:24:14.057Z,65.13
2022-08-19T20:27:05.090Z,65.63
2022-08-19T20:29:52.824Z,66.04
2022-08-19T20:32:42.912Z,66.74
2022-08-19T20:35:33.161Z,67.17
2022-08-19T20:38:22.961Z,67.74
2022-08-19T20:41:11.608Z,68.13
2022-08-19T20:44:04.136Z,68.02
2022-08-19T20:46:55.622Z,68.07
2022-08-19T20:49:41.088Z,68.13
2022-08-19T20:52:28.961Z,68.38
2022-08-19T20:55:16.296Z,68.93
2022-08-19T20:58:05.912Z,69.29
2022-08-19T21:00:57.209Z,69.57
2022-08-19T21:03:44.856Z,69.68
2022-08-19T21:06:32.625Z,69.86
2022-08-19T21:09:20.010Z,70.03
2022-08-19T21:12:08.770Z,70.09
2022-08-19T21:14:56.280Z,70.37
2022-08-19T21:17:43.841Z,70.53
2022-08-19T21:20:31.425Z,70.65
2022-08-19T21:23:22.498Z,70.51
2022-08-19T21:26:10.017Z,70.41
2022-08-19T21:28:57.920Z,70.45
2022-08-19T21:31:45.361Z,70.26
2022-08-19T21:34:33.009Z,69.91
2022-08-19T21:37:25.205Z,69.64
2022-08-19T21:40:10.787Z,69.46
2022-08-19T21:42:58.235Z,69.44
2022-08-19T21:45:47.636Z,69.74
2022-08-19T21:48:35.377Z,69.87
2022-08-19T21:51:22.656Z,70.70
2022-08-19T21:54:14.186Z,71.29
2022-08-19T21:57:00.060Z,71.51
2022-08-19T21:59:48.008Z,71.51
2022-08-19T22:02:35.555Z,70.79
2022-08-19T22:05:24.658Z,71.32
2022-08-19T22:08:14.528Z,71.44
2022-08-19T22:11:04.409Z,71.63
2022-08-19T22:13:53.684Z,72.66
2022-08-19T22:16:41.161Z,73.06
2022-08-19T22:19:29.386Z,73.71
2022-08-19T22:22:24.941Z,74.23
2022-08-19T22:25:31.134Z,74.77
2022-08-19T22:28:08.273Z,75.34
2022-08-19T22:30:57.783Z,75.73
2022-08-19T22:33:45.399Z,75.57
2022-08-19T22:36:33.360Z,75.35
2022-08-19T22:39:21.249Z,75.96
2022-08-19T22:42:08.757Z,76.90
2022-08-19T22:44:59.065Z,77.52
2022-08-19T22:47:46.416Z,77.98
2022-08-19T22:50:35.040Z,77.95
2022-08-19T22:53:22.202Z,77.83
2022-08-19T22:56:15.170Z,77.84
2022-08-19T22:59:00.976Z,77.94
2022-08-19T23:01:48.610Z,78.22
2022-08-19T23:04:36.892Z,78.43
2022-08-19T23:07:24.691Z,79.30
2022-08-19T23:10:12.410Z,80.22
2022-08-19T23:13:00.562Z,80.83
2022-08-19T23:15:48.629Z,81.53
2022-08-19T23:18:35.953Z,82.14
2022-08-19T23:21:26.680Z,82.47
2022-08-19T23:24:14.296Z,82.32
2022-08-19T23:27:19.595Z,82.22
2022-08-19T23:30:25.576Z,82.17
2022-08-19T23:33:36.233Z,81.98
2022-08-19T23:36:20.072Z,81.71
2022-08-19T23:39:07.649Z,81.95
2022-08-19T23:41:55.801Z,82.08
2022-08-19T23:44:51.884Z,82.65
2022-08-19T23:47:34.721Z,82.91
2022-08-19T23:50:22.584Z,82.96
2022-08-19T23:53:13.295Z,82.80
2022-08-19T23:55:59.664Z,82.80
2022-08-19T23:58:49.241Z,82.89
